sensor_id;sensor_type;location;lat;lon;timestamp;P1;durP1;ratioP1;P2;durP2;ratioP2
28796;SDS011;24974;54.444;18.560;2023-07-13T00:02:27;6.78;;;4.25;;
28796;SDS011;24974;54.444;18.560;2023-07-13T00:04:58;15.43;;;4.57;;
28796;SDS011;24974;54.444;18.560;2023-07-13T00:07:29;8.18;;;4.40;;
28796;SDS011;24974;54.444;18.560;2023-07-13T00:10:02;11.98;;;4.75;;
28796;SDS011;24974;54.444;18.560;2023-07-13T00:12:35;7.18;;;3.92;;
28796;SDS011;24974;54.444;18.560;2023-07-13T00:15:10;8.20;;;4.45;;
28796;SDS011;24974;54.444;18.560;2023-07-13T00:17:44;8.88;;;4.60;;
28796;SDS011;24974;54.444;18.560;2023-07-13T00:20:15;7.70;;;4.95;;
28796;SDS011;24974;54.444;18.560;2023-07-13T00:22:46;10.88;;;4.90;;
28796;SDS011;24974;54.444;18.560;2023-07-13T00:25:17;11.57;;;4.30;;
28796;SDS011;24974;54.444;18.560;2023-07-13T00:27:48;7.97;;;4.75;;
28796;SDS011;24974;54.444;18.560;2023-07-13T00:30:19;5.88;;;4.82;;
28796;SDS011;24974;54.444;18.560;2023-07-13T00:32:50;8.43;;;4.50;;
28796;SDS011;24974;54.444;18.560;2023-07-13T00:35:21;6.72;;;4.32;;
28796;SDS011;24974;54.444;18.560;2023-07-13T00:37:52;7.00;;;4.47;;
28796;SDS011;24974;54.444;18.560;2023-07-13T00:40:23;8.15;;;4.40;;
28796;SDS011;24974;54.444;18.560;2023-07-13T00:42:56;7.10;;;4.53;;
28796;SDS011;24974;54.444;18.560;2023-07-13T00:48:00;7.85;;;4.50;;
28796;SDS011;24974;54.444;18.560;2023-07-13T00:50:31;11.57;;;4.60;;
28796;SDS011;24974;54.444;18.560;2023-07-13T00:53:02;9.82;;;4.53;;
28796;SDS011;24974;54.444;18.560;2023-07-13T00:55:34;8.57;;;4.53;;
28796;SDS011;24974;54.444;18.560;2023-07-13T00:58:06;6.68;;;4.63;;
28796;SDS011;24974;54.444;18.560;2023-07-13T01:00:37;6.45;;;4.43;;
28796;SDS011;24974;54.444;18.560;2023-07-13T01:03:09;9.75;;;5.25;;
28796;SDS011;24974;54.444;18.560;2023-07-13T01:05:40;8.93;;;4.40;;
28796;SDS011;24974;54.444;18.560;2023-07-13T01:08:11;8.32;;;4.40;;
28796;SDS011;24974;54.444;18.560;2023-07-13T01:10:50;7.28;;;4.38;;
28796;SDS011;24974;54.444;18.560;2023-07-13T01:13:22;6.65;;;4.35;;
28796;SDS011;24974;54.444;18.560;2023-07-13T01:15:55;8.98;;;4.82;;
28796;SDS011;24974;54.444;18.560;2023-07-13T01:18:29;6.82;;;4.05;;
28796;SDS011;24974;54.444;18.560;2023-07-13T01:21:01;7.40;;;4.63;;
28796;SDS011;24974;54.444;18.560;2023-07-13T01:23:34;6.82;;;4.80;;
28796;SDS011;24974;54.444;18.560;2023-07-13T01:26:05;13.68;;;4.97;;
28796;SDS011;24974;54.444;18.560;2023-07-13T01:28:36;7.45;;;4.95;;
28796;SDS011;24974;54.444;18.560;2023-07-13T01:31:08;8.25;;;4.88;;
28796;SDS011;24974;54.444;18.560;2023-07-13T01:33:40;9.82;;;4.45;;
28796;SDS011;24974;54.444;18.560;2023-07-13T01:36:11;7.05;;;4.65;;
28796;SDS011;24974;54.444;18.560;2023-07-13T01:38:42;9.00;;;5.32;;
28796;SDS011;24974;54.444;18.560;2023-07-13T01:41:13;8.30;;;5.40;;
28796;SDS011;24974;54.444;18.560;2023-07-13T01:43:44;8.25;;;5.18;;
28796;SDS011;24974;54.444;18.560;2023-07-13T01:46:14;8.25;;;4.88;;
28796;SDS011;24974;54.444;18.560;2023-07-13T01:48:45;9.13;;;4.80;;
28796;SDS011;24974;54.444;18.560;2023-07-13T01:51:16;9.57;;;4.53;;
28796;SDS011;24974;54.444;18.560;2023-07-13T01:53:49;16.25;;;5.70;;
28796;SDS011;24974;54.444;18.560;2023-07-13T01:56:20;12.95;;;5.82;;
28796;SDS011;24974;54.444;18.560;2023-07-13T01:58:51;12.32;;;4.82;;
28796;SDS011;24974;54.444;18.560;2023-07-13T02:01:23;13.52;;;5.43;;
28796;SDS011;24974;54.444;18.560;2023-07-13T02:03:53;12.27;;;5.43;;
28796;SDS011;24974;54.444;18.560;2023-07-13T02:06:24;9.50;;;5.05;;
28796;SDS011;24974;54.444;18.560;2023-07-13T02:08:55;6.95;;;4.60;;
28796;SDS011;24974;54.444;18.560;2023-07-13T02:11:26;6.35;;;4.63;;
28796;SDS011;24974;54.444;18.560;2023-07-13T02:14:03;9.07;;;4.68;;
28796;SDS011;24974;54.444;18.560;2023-07-13T02:16:34;7.57;;;5.07;;
28796;SDS011;24974;54.444;18.560;2023-07-13T02:19:05;10.40;;;5.90;;
28796;SDS011;24974;54.444;18.560;2023-07-13T02:21:36;13.40;;;5.38;;
28796;SDS011;24974;54.444;18.560;2023-07-13T02:24:07;8.48;;;5.30;;
28796;SDS011;24974;54.444;18.560;2023-07-13T02:26:39;8.07;;;5.45;;
28796;SDS011;24974;54.444;18.560;2023-07-13T02:29:09;12.15;;;5.47;;
28796;SDS011;24974;54.444;18.560;2023-07-13T02:31:41;9.85;;;5.60;;
28796;SDS011;24974;54.444;18.560;2023-07-13T02:34:12;11.70;;;5.55;;
28796;SDS011;24974;54.444;18.560;2023-07-13T02:36:43;8.73;;;5.13;;
28796;SDS011;24974;54.444;18.560;2023-07-13T02:39:14;9.35;;;6.05;;
28796;SDS011;24974;54.444;18.560;2023-07-13T02:41:46;10.25;;;5.72;;
28796;SDS011;24974;54.444;18.560;2023-07-13T02:44:18;11.80;;;5.30;;
28796;SDS011;24974;54.444;18.560;2023-07-13T02:46:48;7.05;;;4.80;;
28796;SDS011;24974;54.444;18.560;2023-07-13T02:49:19;10.07;;;5.15;;
28796;SDS011;24974;54.444;18.560;2023-07-13T02:51:50;7.53;;;5.03;;
28796;SDS011;24974;54.444;18.560;2023-07-13T02:54:22;6.40;;;4.53;;
28796;SDS011;24974;54.444;18.560;2023-07-13T02:56:53;8.65;;;4.95;;
28796;SDS011;24974;54.444;18.560;2023-07-13T02:59:24;12.23;;;5.43;;
28796;SDS011;24974;54.444;18.560;2023-07-13T03:01:54;8.57;;;5.50;;
28796;SDS011;24974;54.444;18.560;2023-07-13T03:04:26;9.38;;;4.68;;
28796;SDS011;24974;54.444;18.560;2023-07-13T03:06:57;7.95;;;5.10;;
28796;SDS011;24974;54.444;18.560;2023-07-13T03:09:33;9.27;;;5.22;;
28796;SDS011;24974;54.444;18.560;2023-07-13T03:12:06;11.98;;;5.18;;
28796;SDS011;24974;54.444;18.560;2023-07-13T03:14:37;9.85;;;5.22;;
28796;SDS011;24974;54.444;18.560;2023-07-13T03:17:10;8.73;;;5.38;;
28796;SDS011;24974;54.444;18.560;2023-07-13T03:19:44;11.70;;;5.53;;
28796;SDS011;24974;54.444;18.560;2023-07-13T03:22:16;11.82;;;5.40;;
28796;SDS011;24974;54.444;18.560;2023-07-13T03:24:50;13.88;;;5.85;;
28796;SDS011;24974;54.444;18.560;2023-07-13T03:27:21;9.18;;;5.47;;
28796;SDS011;24974;54.444;18.560;2023-07-13T03:29:53;11.88;;;6.00;;
28796;SDS011;24974;54.444;18.560;2023-07-13T03:32:24;8.02;;;5.53;;
28796;SDS011;24974;54.444;18.560;2023-07-13T03:34:55;14.52;;;5.85;;
28796;SDS011;24974;54.444;18.560;2023-07-13T03:37:26;13.23;;;5.93;;
28796;SDS011;24974;54.444;18.560;2023-07-13T03:39:57;11.85;;;6.32;;
28796;SDS011;24974;54.444;18.560;2023-07-13T03:42:30;12.80;;;6.18;;
28796;SDS011;24974;54.444;18.560;2023-07-13T03:45:01;10.50;;;6.07;;
28796;SDS011;24974;54.444;18.560;2023-07-13T03:47:35;13.23;;;5.40;;
28796;SDS011;24974;54.444;18.560;2023-07-13T03:50:09;12.48;;;5.32;;
28796;SDS011;24974;54.444;18.560;2023-07-13T03:52:40;12.55;;;5.32;;
28796;SDS011;24974;54.444;18.560;2023-07-13T03:55:11;13.23;;;5.40;;
28796;SDS011;24974;54.444;18.560;2023-07-13T03:57:42;11.43;;;4.90;;
28796;SDS011;24974;54.444;18.560;2023-07-13T04:00:13;9.60;;;5.13;;
28796;SDS011;24974;54.444;18.560;2023-07-13T04:02:47;16.70;;;5.38;;
28796;SDS011;24974;54.444;18.560;2023-07-13T04:05:20;13.27;;;5.10;;
28796;SDS011;24974;54.444;18.560;2023-07-13T04:07:51;14.63;;;4.65;;
28796;SDS011;24974;54.444;18.560;2023-07-13T04:10:22;11.45;;;4.72;;
28796;SDS011;24974;54.444;18.560;2023-07-13T04:12:52;13.80;;;4.40;;
28796;SDS011;24974;54.444;18.560;2023-07-13T04:15:23;10.65;;;3.75;;
28796;SDS011;24974;54.444;18.560;2023-07-13T04:17:54;8.27;;;3.85;;
28796;SDS011;24974;54.444;18.560;2023-07-13T04:20:25;10.20;;;3.83;;
28796;SDS011;24974;54.444;18.560;2023-07-13T04:22:56;12.55;;;3.75;;
28796;SDS011;24974;54.444;18.560;2023-07-13T04:25:27;13.50;;;4.07;;
28796;SDS011;24974;54.444;18.560;2023-07-13T04:27:58;11.02;;;3.95;;
28796;SDS011;24974;54.444;18.560;2023-07-13T04:30:29;15.00;;;3.72;;
28796;SDS011;24974;54.444;18.560;2023-07-13T04:33:00;15.48;;;3.80;;
28796;SDS011;24974;54.444;18.560;2023-07-13T04:35:31;8.57;;;3.85;;
28796;SDS011;24974;54.444;18.560;2023-07-13T04:38:02;9.52;;;3.30;;
28796;SDS011;24974;54.444;18.560;2023-07-13T04:40:33;11.27;;;3.83;;
28796;SDS011;24974;54.444;18.560;2023-07-13T04:43:04;13.98;;;3.83;;
28796;SDS011;24974;54.444;18.560;2023-07-13T04:45:35;14.20;;;3.88;;
28796;SDS011;24974;54.444;18.560;2023-07-13T04:48:06;12.20;;;3.78;;
28796;SDS011;24974;54.444;18.560;2023-07-13T04:50:37;12.68;;;3.08;;
28796;SDS011;24974;54.444;18.560;2023-07-13T04:53:08;15.05;;;3.25;;
28796;SDS011;24974;54.444;18.560;2023-07-13T04:55:39;14.90;;;4.18;;
28796;SDS011;24974;54.444;18.560;2023-07-13T04:58:11;8.50;;;2.85;;
28796;SDS011;24974;54.444;18.560;2023-07-13T05:00:41;11.65;;;3.45;;
28796;SDS011;24974;54.444;18.560;2023-07-13T05:03:12;9.65;;;3.10;;
28796;SDS011;24974;54.444;18.560;2023-07-13T05:05:43;14.40;;;2.92;;
28796;SDS011;24974;54.444;18.560;2023-07-13T05:08:24;8.07;;;2.67;;
28796;SDS011;24974;54.444;18.560;2023-07-13T05:10:55;8.75;;;3.10;;
28796;SDS011;24974;54.444;18.560;2023-07-13T05:13:26;11.00;;;2.83;;
28796;SDS011;24974;54.444;18.560;2023-07-13T05:15:58;10.43;;;2.92;;
28796;SDS011;24974;54.444;18.560;2023-07-13T05:18:30;9.25;;;3.38;;
28796;SDS011;24974;54.444;18.560;2023-07-13T05:21:02;7.82;;;2.95;;
28796;SDS011;24974;54.444;18.560;2023-07-13T05:23:38;9.05;;;2.72;;
28796;SDS011;24974;54.444;18.560;2023-07-13T05:26:11;9.40;;;3.05;;
28796;SDS011;24974;54.444;18.560;2023-07-13T05:28:42;6.32;;;2.30;;
28796;SDS011;24974;54.444;18.560;2023-07-13T05:31:13;6.60;;;2.28;;
28796;SDS011;24974;54.444;18.560;2023-07-13T05:33:44;10.18;;;2.72;;
28796;SDS011;24974;54.444;18.560;2023-07-13T05:36:15;9.18;;;2.60;;
28796;SDS011;24974;54.444;18.560;2023-07-13T05:38:45;9.48;;;2.90;;
28796;SDS011;24974;54.444;18.560;2023-07-13T05:41:16;7.63;;;2.25;;
28796;SDS011;24974;54.444;18.560;2023-07-13T05:43:47;7.55;;;2.05;;
28796;SDS011;24974;54.444;18.560;2023-07-13T05:46:18;11.93;;;1.75;;
28796;SDS011;24974;54.444;18.560;2023-07-13T05:48:49;8.02;;;2.80;;
28796;SDS011;24974;54.444;18.560;2023-07-13T05:51:20;7.55;;;2.03;;
28796;SDS011;24974;54.444;18.560;2023-07-13T05:53:51;10.30;;;2.28;;
28796;SDS011;24974;54.444;18.560;2023-07-13T05:56:21;7.97;;;2.05;;
28796;SDS011;24974;54.444;18.560;2023-07-13T05:58:52;8.55;;;2.88;;
28796;SDS011;24974;54.444;18.560;2023-07-13T06:01:23;9.73;;;2.78;;
28796;SDS011;24974;54.444;18.560;2023-07-13T06:03:54;7.53;;;1.80;;
28796;SDS011;24974;54.444;18.560;2023-07-13T06:06:25;10.95;;;2.35;;
28796;SDS011;24974;54.444;18.560;2023-07-13T06:08:56;6.70;;;2.22;;
28796;SDS011;24974;54.444;18.560;2023-07-13T06:11:27;5.68;;;1.50;;
28796;SDS011;24974;54.444;18.560;2023-07-13T06:14:00;7.55;;;1.80;;
28796;SDS011;24974;54.444;18.560;2023-07-13T06:16:31;6.70;;;1.80;;
28796;SDS011;24974;54.444;18.560;2023-07-13T06:19:01;9.50;;;2.17;;
28796;SDS011;24974;54.444;18.560;2023-07-13T06:21:32;6.88;;;1.98;;
28796;SDS011;24974;54.444;18.560;2023-07-13T06:24:03;6.15;;;2.38;;
28796;SDS011;24974;54.444;18.560;2023-07-13T06:26:34;5.25;;;1.90;;
28796;SDS011;24974;54.444;18.560;2023-07-13T06:29:05;7.20;;;2.47;;
28796;SDS011;24974;54.444;18.560;2023-07-13T06:31:36;5.93;;;1.42;;
28796;SDS011;24974;54.444;18.560;2023-07-13T06:34:07;7.38;;;1.75;;
28796;SDS011;24974;54.444;18.560;2023-07-13T06:36:37;7.68;;;2.20;;
28796;SDS011;24974;54.444;18.560;2023-07-13T06:39:08;3.22;;;1.38;;
28796;SDS011;24974;54.444;18.560;2023-07-13T06:41:39;6.15;;;1.80;;
28796;SDS011;24974;54.444;18.560;2023-07-13T06:44:14;3.47;;;1.48;;
28796;SDS011;24974;54.444;18.560;2023-07-13T06:46:45;8.25;;;1.90;;
28796;SDS011;24974;54.444;18.560;2023-07-13T06:49:16;9.52;;;2.25;;
28796;SDS011;24974;54.444;18.560;2023-07-13T06:51:46;6.93;;;2.42;;
28796;SDS011;24974;54.444;18.560;2023-07-13T06:54:17;6.88;;;1.42;;
28796;SDS011;24974;54.444;18.560;2023-07-13T06:56:48;5.40;;;1.13;;
28796;SDS011;24974;54.444;18.560;2023-07-13T06:59:19;7.63;;;1.58;;
28796;SDS011;24974;54.444;18.560;2023-07-13T07:01:50;3.17;;;1.25;;
28796;SDS011;24974;54.444;18.560;2023-07-13T07:04:20;8.88;;;1.80;;
28796;SDS011;24974;54.444;18.560;2023-07-13T07:06:51;8.15;;;1.70;;
28796;SDS011;24974;54.444;18.560;2023-07-13T07:09:22;5.53;;;1.63;;
28796;SDS011;24974;54.444;18.560;2023-07-13T07:11:53;6.10;;;1.40;;
28796;SDS011;24974;54.444;18.560;2023-07-13T07:14:24;7.03;;;1.38;;
28796;SDS011;24974;54.444;18.560;2023-07-13T07:16:55;8.32;;;1.83;;
28796;SDS011;24974;54.444;18.560;2023-07-13T07:19:27;4.22;;;1.48;;
28796;SDS011;24974;54.444;18.560;2023-07-13T07:22:00;5.05;;;1.23;;
28796;SDS011;24974;54.444;18.560;2023-07-13T07:24:31;5.88;;;1.50;;
28796;SDS011;24974;54.444;18.560;2023-07-13T07:27:02;7.43;;;2.47;;
28796;SDS011;24974;54.444;18.560;2023-07-13T07:29:33;27.52;;;14.02;;
28796;SDS011;24974;54.444;18.560;2023-07-13T07:32:04;5.90;;;1.40;;
28796;SDS011;24974;54.444;18.560;2023-07-13T07:34:35;6.60;;;1.60;;
28796;SDS011;24974;54.444;18.560;2023-07-13T07:37:06;4.32;;;1.50;;
28796;SDS011;24974;54.444;18.560;2023-07-13T07:39:37;4.47;;;1.40;;
28796;SDS011;24974;54.444;18.560;2023-07-13T07:42:08;4.80;;;1.17;;
28796;SDS011;24974;54.444;18.560;2023-07-13T07:44:40;3.25;;;1.25;;
28796;SDS011;24974;54.444;18.560;2023-07-13T07:47:11;4.50;;;1.17;;
28796;SDS011;24974;54.444;18.560;2023-07-13T07:49:42;5.72;;;1.40;;
28796;SDS011;24974;54.444;18.560;2023-07-13T07:52:12;4.28;;;1.10;;
28796;SDS011;24974;54.444;18.560;2023-07-13T07:54:44;3.17;;;1.10;;
28796;SDS011;24974;54.444;18.560;2023-07-13T07:57:15;4.20;;;1.05;;
28796;SDS011;24974;54.444;18.560;2023-07-13T07:59:45;5.50;;;1.15;;
28796;SDS011;24974;54.444;18.560;2023-07-13T08:02:16;7.40;;;1.08;;
28796;SDS011;24974;54.444;18.560;2023-07-13T08:04:47;4.40;;;1.17;;
28796;SDS011;24974;54.444;18.560;2023-07-13T08:07:18;5.63;;;1.35;;
28796;SDS011;24974;54.444;18.560;2023-07-13T08:09:51;5.03;;;1.13;;
28796;SDS011;24974;54.444;18.560;2023-07-13T08:12:23;4.97;;;1.30;;
28796;SDS011;24974;54.444;18.560;2023-07-13T08:14:53;6.70;;;1.33;;
28796;SDS011;24974;54.444;18.560;2023-07-13T08:17:27;3.22;;;1.13;;
28796;SDS011;24974;54.444;18.560;2023-07-13T08:19:58;2.80;;;1.00;;
28796;SDS011;24974;54.444;18.560;2023-07-13T08:22:29;4.47;;;1.42;;
28796;SDS011;24974;54.444;18.560;2023-07-13T08:25:00;4.82;;;1.33;;
28796;SDS011;24974;54.444;18.560;2023-07-13T08:27:32;7.65;;;1.70;;
28796;SDS011;24974;54.444;18.560;2023-07-13T08:30:03;3.00;;;1.13;;
28796;SDS011;24974;54.444;18.560;2023-07-13T08:32:36;2.28;;;1.10;;
28796;SDS011;24974;54.444;18.560;2023-07-13T08:35:07;5.05;;;1.17;;
28796;SDS011;24974;54.444;18.560;2023-07-13T08:37:38;3.55;;;0.85;;
28796;SDS011;24974;54.444;18.560;2023-07-13T08:40:09;8.40;;;2.17;;
28796;SDS011;24974;54.444;18.560;2023-07-13T08:45:38;2.92;;;1.40;;
28796;SDS011;24974;54.444;18.560;2023-07-13T08:48:18;4.22;;;1.30;;
28796;SDS011;24974;54.444;18.560;2023-07-13T08:53:40;3.45;;;1.00;;
28796;SDS011;24974;54.444;18.560;2023-07-13T08:56:17;4.43;;;1.10;;
28796;SDS011;24974;54.444;18.560;2023-07-13T08:58:53;19.17;;;11.38;;
28796;SDS011;24974;54.444;18.560;2023-07-13T09:02:06;5.80;;;1.02;;
28796;SDS011;24974;54.444;18.560;2023-07-13T09:15:44;3.05;;;1.23;;
28796;SDS011;24974;54.444;18.560;2023-07-13T09:18:27;4.72;;;1.10;;
28796;SDS011;24974;54.444;18.560;2023-07-13T09:21:15;6.15;;;1.20;;
28796;SDS011;24974;54.444;18.560;2023-07-13T09:23:52;4.82;;;1.35;;
28796;SDS011;24974;54.444;18.560;2023-07-13T09:26:27;4.15;;;1.10;;
28796;SDS011;24974;54.444;18.560;2023-07-13T09:29:03;6.25;;;1.40;;
28796;SDS011;24974;54.444;18.560;2023-07-13T09:31:46;5.25;;;1.70;;
28796;SDS011;24974;54.444;18.560;2023-07-13T09:34:23;5.57;;;1.13;;
28796;SDS011;24974;54.444;18.560;2023-07-13T09:36:56;2.70;;;0.98;;
28796;SDS011;24974;54.444;18.560;2023-07-13T09:39:31;9.40;;;1.17;;
28796;SDS011;24974;54.444;18.560;2023-07-13T09:42:12;5.60;;;1.13;;
28796;SDS011;24974;54.444;18.560;2023-07-13T09:50:00;5.32;;;1.00;;
28796;SDS011;24974;54.444;18.560;2023-07-13T09:52:46;8.50;;;1.42;;
28796;SDS011;24974;54.444;18.560;2023-07-13T09:55:25;4.13;;;1.05;;
28796;SDS011;24974;54.444;18.560;2023-07-13T09:57:57;4.60;;;1.33;;
28796;SDS011;24974;54.444;18.560;2023-07-13T10:00:29;4.40;;;1.33;;
28796;SDS011;24974;54.444;18.560;2023-07-13T10:05:39;2.78;;;1.40;;
28796;SDS011;24974;54.444;18.560;2023-07-13T10:10:58;4.55;;;0.98;;
28796;SDS011;24974;54.444;18.560;2023-07-13T10:13:35;4.10;;;1.02;;
28796;SDS011;24974;54.444;18.560;2023-07-13T10:16:09;3.60;;;1.35;;
28796;SDS011;24974;54.444;18.560;2023-07-13T10:18:52;4.60;;;1.67;;
28796;SDS011;24974;54.444;18.560;2023-07-13T10:21:30;3.03;;;1.45;;
28796;SDS011;24974;54.444;18.560;2023-07-13T10:29:47;6.32;;;1.30;;
28796;SDS011;24974;54.444;18.560;2023-07-13T10:32:23;6.60;;;1.55;;
28796;SDS011;24974;54.444;18.560;2023-07-13T10:34:54;5.13;;;1.75;;
28796;SDS011;24974;54.444;18.560;2023-07-13T10:37:36;5.65;;;1.55;;
28796;SDS011;24974;54.444;18.560;2023-07-13T10:40:17;3.97;;;1.38;;
28796;SDS011;24974;54.444;18.560;2023-07-13T10:42:54;3.63;;;1.40;;
28796;SDS011;24974;54.444;18.560;2023-07-13T10:45:29;5.93;;;1.70;;
28796;SDS011;24974;54.444;18.560;2023-07-13T10:48:04;3.05;;;1.10;;
28796;SDS011;24974;54.444;18.560;2023-07-13T10:50:40;10.05;;;1.70;;
28796;SDS011;24974;54.444;18.560;2023-07-13T10:53:19;8.80;;;1.60;;
28796;SDS011;24974;54.444;18.560;2023-07-13T10:56:01;4.93;;;1.63;;
28796;SDS011;24974;54.444;18.560;2023-07-13T10:58:37;6.82;;;1.90;;
28796;SDS011;24974;54.444;18.560;2023-07-13T11:01:11;8.20;;;1.80;;
28796;SDS011;24974;54.444;18.560;2023-07-13T11:03:48;4.50;;;1.50;;
28796;SDS011;24974;54.444;18.560;2023-07-13T11:09:18;4.47;;;1.20;;
28796;SDS011;24974;54.444;18.560;2023-07-13T11:12:03;4.72;;;1.60;;
28796;SDS011;24974;54.444;18.560;2023-07-13T11:20:19;3.30;;;1.02;;
28796;SDS011;24974;54.444;18.560;2023-07-13T11:25:47;8.32;;;1.65;;
28796;SDS011;24974;54.444;18.560;2023-07-13T11:28:21;5.63;;;1.35;;
28796;SDS011;24974;54.444;18.560;2023-07-13T11:33:29;4.53;;;1.20;;
28796;SDS011;24974;54.444;18.560;2023-07-13T11:36:14;3.88;;;0.80;;
28796;SDS011;24974;54.444;18.560;2023-07-13T11:41:43;3.40;;;0.75;;
28796;SDS011;24974;54.444;18.560;2023-07-13T11:44:18;6.05;;;1.33;;
28796;SDS011;24974;54.444;18.560;2023-07-13T11:46:51;5.72;;;1.52;;
28796;SDS011;24974;54.444;18.560;2023-07-13T11:49:31;8.02;;;1.20;;
28796;SDS011;24974;54.444;18.560;2023-07-13T11:52:02;3.75;;;1.10;;
28796;SDS011;24974;54.444;18.560;2023-07-13T11:54:41;4.53;;;0.80;;
28796;SDS011;24974;54.444;18.560;2023-07-13T11:57:26;6.55;;;1.65;;
28796;SDS011;24974;54.444;18.560;2023-07-13T12:00:12;9.45;;;1.10;;
28796;SDS011;24974;54.444;18.560;2023-07-13T12:02:48;6.10;;;1.33;;
28796;SDS011;24974;54.444;18.560;2023-07-13T12:05:21;7.05;;;1.13;;
28796;SDS011;24974;54.444;18.560;2023-07-13T12:07:53;6.95;;;1.27;;
28796;SDS011;24974;54.444;18.560;2023-07-13T12:10:26;6.30;;;1.13;;
28796;SDS011;24974;54.444;18.560;2023-07-13T12:13:05;3.25;;;1.27;;
28796;SDS011;24974;54.444;18.560;2023-07-13T12:15:39;5.13;;;1.05;;
28796;SDS011;24974;54.444;18.560;2023-07-13T12:18:15;6.05;;;1.40;;
28796;SDS011;24974;54.444;18.560;2023-07-13T12:20:49;3.15;;;0.90;;
28796;SDS011;24974;54.444;18.560;2023-07-13T12:23:24;3.95;;;0.88;;
28796;SDS011;24974;54.444;18.560;2023-07-13T12:25:59;8.80;;;1.20;;
28796;SDS011;24974;54.444;18.560;2023-07-13T12:28:34;6.47;;;1.10;;
28796;SDS011;24974;54.444;18.560;2023-07-13T12:36:47;2.53;;;1.00;;
28796;SDS011;24974;54.444;18.560;2023-07-13T12:39:32;7.70;;;1.10;;
28796;SDS011;24974;54.444;18.560;2023-07-13T12:44:48;5.75;;;1.40;;
28796;SDS011;24974;54.444;18.560;2023-07-13T12:47:20;4.63;;;1.27;;
28796;SDS011;24974;54.444;18.560;2023-07-13T12:49:56;3.78;;;1.25;;
28796;SDS011;24974;54.444;18.560;2023-07-13T12:52:32;6.00;;;1.15;;
28796;SDS011;24974;54.444;18.560;2023-07-13T12:55:07;5.30;;;1.10;;
28796;SDS011;24974;54.444;18.560;2023-07-13T12:57:49;7.68;;;1.77;;
28796;SDS011;24974;54.444;18.560;2023-07-13T13:02:56;4.45;;;1.05;;
28796;SDS011;24974;54.444;18.560;2023-07-13T13:05:28;7.30;;;1.20;;
28796;SDS011;24974;54.444;18.560;2023-07-13T13:08:00;3.28;;;0.90;;
28796;SDS011;24974;54.444;18.560;2023-07-13T13:10:31;2.63;;;0.90;;
28796;SDS011;24974;54.444;18.560;2023-07-13T13:13:02;5.90;;;1.15;;
28796;SDS011;24974;54.444;18.560;2023-07-13T13:15:33;7.30;;;1.20;;
28796;SDS011;24974;54.444;18.560;2023-07-13T13:18:09;5.03;;;0.93;;
28796;SDS011;24974;54.444;18.560;2023-07-13T13:20:51;6.75;;;1.40;;
28796;SDS011;24974;54.444;18.560;2023-07-13T13:23:22;5.38;;;1.13;;
28796;SDS011;24974;54.444;18.560;2023-07-13T13:25:54;3.42;;;0.95;;
28796;SDS011;24974;54.444;18.560;2023-07-13T13:28:25;7.07;;;1.08;;
28796;SDS011;24974;54.444;18.560;2023-07-13T13:30:56;5.28;;;1.05;;
28796;SDS011;24974;54.444;18.560;2023-07-13T13:33:27;4.90;;;1.02;;
28796;SDS011;24974;54.444;18.560;2023-07-13T13:35:58;3.47;;;0.90;;
28796;SDS011;24974;54.444;18.560;2023-07-13T13:38:29;3.72;;;0.95;;
28796;SDS011;24974;54.444;18.560;2023-07-13T13:41:00;3.13;;;1.00;;
28796;SDS011;24974;54.444;18.560;2023-07-13T13:43:31;3.50;;;0.98;;
28796;SDS011;24974;54.444;18.560;2023-07-13T13:46:02;2.78;;;0.77;;
28796;SDS011;24974;54.444;18.560;2023-07-13T13:48:51;2.10;;;0.82;;
28796;SDS011;24974;54.444;18.560;2023-07-13T13:51:22;2.67;;;0.65;;
28796;SDS011;24974;54.444;18.560;2023-07-13T13:53:55;4.13;;;1.08;;
28796;SDS011;24974;54.444;18.560;2023-07-13T13:56:25;4.85;;;0.90;;
28796;SDS011;24974;54.444;18.560;2023-07-13T13:58:57;2.78;;;0.95;;
28796;SDS011;24974;54.444;18.560;2023-07-13T14:01:28;3.45;;;0.85;;
28796;SDS011;24974;54.444;18.560;2023-07-13T14:04:01;5.20;;;1.00;;
28796;SDS011;24974;54.444;18.560;2023-07-13T14:06:32;3.85;;;0.90;;
28796;SDS011;24974;54.444;18.560;2023-07-13T14:09:04;4.13;;;1.20;;
28796;SDS011;24974;54.444;18.560;2023-07-13T14:11:39;5.32;;;0.95;;
28796;SDS011;24974;54.444;18.560;2023-07-13T14:14:22;3.58;;;1.10;;
28796;SDS011;24974;54.444;18.560;2023-07-13T14:16:56;6.15;;;1.27;;
28796;SDS011;24974;54.444;18.560;2023-07-13T14:19:27;5.60;;;0.93;;
28796;SDS011;24974;54.444;18.560;2023-07-13T14:21:58;3.95;;;1.20;;
28796;SDS011;24974;54.444;18.560;2023-07-13T14:24:29;4.68;;;0.95;;
28796;SDS011;24974;54.444;18.560;2023-07-13T14:26:59;6.85;;;1.30;;
28796;SDS011;24974;54.444;18.560;2023-07-13T14:29:31;6.63;;;1.02;;
28796;SDS011;24974;54.444;18.560;2023-07-13T14:32:03;4.88;;;1.08;;
28796;SDS011;24974;54.444;18.560;2023-07-13T14:34:36;7.10;;;1.35;;
28796;SDS011;24974;54.444;18.560;2023-07-13T14:37:11;4.60;;;1.23;;
28796;SDS011;24974;54.444;18.560;2023-07-13T14:39:44;5.80;;;1.13;;
28796;SDS011;24974;54.444;18.560;2023-07-13T14:42:22;4.63;;;1.10;;
28796;SDS011;24974;54.444;18.560;2023-07-13T14:44:53;5.15;;;1.02;;
28796;SDS011;24974;54.444;18.560;2023-07-13T14:47:24;5.97;;;1.25;;
28796;SDS011;24974;54.444;18.560;2023-07-13T14:49:55;4.97;;;1.00;;
28796;SDS011;24974;54.444;18.560;2023-07-13T14:52:26;4.18;;;1.25;;
28796;SDS011;24974;54.444;18.560;2023-07-13T14:54:57;4.72;;;0.90;;
28796;SDS011;24974;54.444;18.560;2023-07-13T14:57:28;4.78;;;1.10;;
28796;SDS011;24974;54.444;18.560;2023-07-13T14:59:59;7.22;;;1.20;;
28796;SDS011;24974;54.444;18.560;2023-07-13T15:02:31;3.08;;;1.00;;
28796;SDS011;24974;54.444;18.560;2023-07-13T15:07:53;4.60;;;1.13;;
28796;SDS011;24974;54.444;18.560;2023-07-13T15:10:28;5.03;;;1.02;;
28796;SDS011;24974;54.444;18.560;2023-07-13T15:15:49;3.28;;;1.00;;
28796;SDS011;24974;54.444;18.560;2023-07-13T15:18:22;4.47;;;0.90;;
28796;SDS011;24974;54.444;18.560;2023-07-13T15:20:55;3.80;;;1.05;;
28796;SDS011;24974;54.444;18.560;2023-07-13T15:23:28;5.95;;;1.15;;
28796;SDS011;24974;54.444;18.560;2023-07-13T15:25:58;5.28;;;1.23;;
28796;SDS011;24974;54.444;18.560;2023-07-13T15:28:29;4.25;;;1.02;;
28796;SDS011;24974;54.444;18.560;2023-07-13T15:31:00;3.63;;;1.13;;
28796;SDS011;24974;54.444;18.560;2023-07-13T15:33:31;4.38;;;0.82;;
28796;SDS011;24974;54.444;18.560;2023-07-13T15:36:04;4.95;;;1.17;;
28796;SDS011;24974;54.444;18.560;2023-07-13T15:38:35;5.00;;;0.98;;
28796;SDS011;24974;54.444;18.560;2023-07-13T15:41:12;3.08;;;0.90;;
28796;SDS011;24974;54.444;18.560;2023-07-13T15:43:48;4.90;;;0.68;;
28796;SDS011;24974;54.444;18.560;2023-07-13T15:46:22;5.43;;;0.82;;
28796;SDS011;24974;54.444;18.560;2023-07-13T15:48:54;3.22;;;1.10;;
28796;SDS011;24974;54.444;18.560;2023-07-13T15:51:28;5.43;;;1.00;;
28796;SDS011;24974;54.444;18.560;2023-07-13T15:54:02;2.45;;;0.77;;
28796;SDS011;24974;54.444;18.560;2023-07-13T15:56:36;5.03;;;0.75;;
28796;SDS011;24974;54.444;18.560;2023-07-13T15:59:10;5.72;;;0.88;;
28796;SDS011;24974;54.444;18.560;2023-07-13T16:01:45;5.05;;;1.13;;
28796;SDS011;24974;54.444;18.560;2023-07-13T16:04:18;3.47;;;0.95;;
28796;SDS011;24974;54.444;18.560;2023-07-13T16:06:49;5.65;;;0.98;;
28796;SDS011;24974;54.444;18.560;2023-07-13T16:09:22;4.53;;;1.00;;
28796;SDS011;24974;54.444;18.560;2023-07-13T16:11:54;3.88;;;1.33;;
28796;SDS011;24974;54.444;18.560;2023-07-13T16:14:27;3.70;;;0.95;;